Time;durP1;ratioP1;P1;durP2;ratioP2;P2;SDS_P1;SDS_P2;PMS_P1;PMS_P2;Temp;Humidity;BMP_temperature;BMP_pressure;BME280_temperature;BME280_humidity;BME280_pressure;Samples;Min_cycle;Max_cycle;Signal;HPM_P1;HPM_P2
2021/01/31 00:01:09;;;;;;;7.97;7.18;;;;;;;3.05;72.40;98741.59;10268209;28;20050;-69
2021/01/31 00:06:11;;;;;;;8.10;7.20;;;;;;;3.04;71.76;98749.59;10311650;28;20753;-67
2021/01/31 00:11:12;;;;;;;7.90;7.10;;;;;;;3.09;71.99;98758.84;10318290;28;20136;-67
2021/01/31 00:16:14;;;;;;;8.40;7.40;;;;;;;3.16;71.39;98765.28;10317236;28;20058;-68
2021/01/31 00:21:15;;;;;;;7.53;6.72;;;;;;;3.17;70.81;98764.34;10310321;28;20520;-67
2021/01/31 00:26:16;;;;;;;7.90;7.03;;;;;;;2.98;71.32;98750.88;10271174;28;20136;-68
2021/01/31 00:31:17;;;;;;;9.05;7.95;;;;;;;3.09;70.79;98774.59;10281199;28;20590;-68
2021/01/31 00:36:19;;;;;;;8.52;7.63;;;;;;;3.12;70.99;98779.63;10277322;28;20104;-68
2021/01/31 00:41:20;;;;;;;9.65;8.75;;;;;;;3.10;70.32;98765.75;10282204;28;20067;-69
2021/01/31 00:46:21;;;;;;;10.27;9.27;;;;;;;3.08;70.56;98754.53;10276097;28;20106;-68
2021/01/31 00:51:22;;;;;;;9.98;8.70;;;;;;;3.16;70.68;98775.81;10271613;28;20054;-68
2021/01/31 00:56:24;;;;;;;9.75;8.80;;;;;;;3.03;69.81;98761.88;10266342;28;20125;-66
2021/01/31 01:01:25;;;;;;;9.95;8.77;;;;;;;2.99;70.61;98784.13;10265161;28;20132;-67
2021/01/31 01:06:26;;;;;;;11.50;9.05;;;;;;;2.98;70.69;98766.66;10313074;28;20229;-67
2021/01/31 01:11:27;;;;;;;11.27;9.85;;;;;;;2.92;70.33;98756.59;10315121;28;20125;-68
2021/01/31 01:16:29;;;;;;;13.60;10.15;;;;;;;3.13;69.87;98783.94;10306705;28;20108;-68
2021/01/31 01:21:31;;;;;;;11.48;10.15;;;;;;;3.11;69.07;98782.38;10301618;28;20051;-67
2021/01/31 01:26:32;;;;;;;12.50;10.27;;;;;;;3.08;69.99;98796.59;10284384;28;20109;-66
2021/01/31 01:31:33;;;;;;;12.27;10.32;;;;;;;2.95;70.30;98787.91;10295710;28;20368;-67
2021/01/31 01:36:34;;;;;;;12.52;10.82;;;;;;;2.90;70.21;98782.13;10299983;28;20141;-68
2021/01/31 01:41:41;;;;;;;14.05;12.07;;;;;;;2.89;69.78;98796.25;10315821;28;20049;-69
2021/01/31 01:46:50;;;;;;;14.02;11.55;;;;;;;2.74;69.71;98788.50;10292471;28;20062;-67
2021/01/31 01:52:12;;;;;;;14.15;11.02;;;;;;;2.82;69.24;98804.56;10293665;28;20070;-66
2021/01/31 01:57:17;;;;;;;13.43;11.82;;;;;;;2.81;69.46;98802.88;10304222;28;20125;-68
2021/01/31 02:02:25;;;;;;;14.63;11.52;;;;;;;2.88;69.84;98812.94;10299167;28;20106;-67
2021/01/31 02:07:26;;;;;;;14.90;12.00;;;;;;;2.93;69.51;98795.06;10313532;28;20081;-67
2021/01/31 02:12:29;;;;;;;12.98;11.40;;;;;;;3.01;69.51;98795.34;10314571;23;20096;-59
2021/01/31 02:17:37;;;;;;;14.95;11.75;;;;;;;3.07;69.26;98794.91;10292474;28;20053;-60
2021/01/31 02:23:05;;;;;;;14.77;11.93;;;;;;;3.00;68.69;98796.28;10334121;28;20461;-59
2021/01/31 02:28:22;;;;;;;13.00;11.10;;;;;;;2.96;68.05;98787.78;10327771;28;20038;-59
2021/01/31 02:33:47;;;;;;;13.80;11.50;;;;;;;2.92;68.66;98803.91;10328076;28;20125;-59
2021/01/31 02:39:14;;;;;;;12.47;11.17;;;;;;;3.00;68.62;98806.81;10333155;28;20515;-60
2021/01/31 02:44:22;;;;;;;16.42;12.43;;;;;;;3.05;68.23;98806.47;10325863;28;20415;-59
2021/01/31 02:49:35;;;;;;;13.75;11.23;;;;;;;2.83;69.05;98806.22;10326782;28;20499;-60
2021/01/31 02:54:53;;;;;;;14.50;11.43;;;;;;;2.98;67.89;98808.72;10325563;28;20465;-59
2021/01/31 03:00:05;;;;;;;14.25;12.23;;;;;;;2.88;67.64;98818.19;10320342;28;20053;-59
2021/01/31 03:05:20;;;;;;;13.95;11.63;;;;;;;2.96;66.99;98818.50;10305193;28;20046;-59
2021/01/31 03:10:38;;;;;;;13.80;10.73;;;;;;;2.86;68.20;98820.13;10311247;28;20073;-60
2021/01/31 03:15:47;;;;;;;12.65;10.15;;;;;;;2.78;67.82;98818.88;10284898;28;20035;-58
2021/01/31 03:21:21;;;;;;;13.45;10.98;;;;;;;2.72;68.88;98808.78;10308306;28;20049;-58
2021/01/31 03:26:33;;;;;;;13.40;10.90;;;;;;;2.78;68.67;98826.75;10290624;28;20058;-59
2021/01/31 03:31:40;;;;;;;14.32;11.00;;;;;;;2.80;67.32;98835.34;10294062;28;20133;-58
2021/01/31 03:36:46;;;;;;;15.07;10.90;;;;;;;2.76;67.50;98836.53;10335561;28;20074;-59
2021/01/31 03:41:48;;;;;;;14.63;10.50;;;;;;;2.71;67.58;98812.38;10331572;28;20210;-59
2021/01/31 03:46:59;;;;;;;14.05;11.40;;;;;;;2.71;67.44;98836.00;10332396;28;20076;-58
2021/01/31 03:52:01;;;;;;;12.25;10.65;;;;;;;2.75;67.17;98829.59;10334776;28;20143;-58
2021/01/31 03:57:10;;;;;;;13.52;11.02;;;;;;;2.74;66.90;98840.22;10329522;28;20196;-59
2021/01/31 04:02:13;;;;;;;12.18;10.00;;;;;;;2.67;66.99;98837.16;10328277;28;20065;-60
2021/01/31 04:07:25;;;;;;;11.63;9.82;;;;;;;2.52;67.83;98833.00;10330737;28;20047;-59
2021/01/31 04:12:30;;;;;;;12.27;10.05;;;;;;;2.45;67.79;98833.44;10304624;28;20046;-60
2021/01/31 04:17:31;;;;;;;;;;;;;;;2.57;67.32;98836.16;10336647;28;20799;-58
2021/01/31 04:22:32;;;;;;;11.07;9.57;;;;;;;2.55;67.10;98848.53;10336209;28;19928;-60
2021/01/31 04:27:34;;;;;;;10.63;9.55;;;;;;;2.54;67.27;98846.84;10335886;28;20732;-59
2021/01/31 04:32:36;;;;;;;12.57;9.70;;;;;;;2.46;67.26;98840.38;10321451;28;20137;-59
2021/01/31 04:37:39;;;;;;;12.18;9.23;;;;;;;2.52;66.88;98846.97;10331209;28;20108;-58
2021/01/31 04:42:40;;;;;;;9.85;8.63;;;;;;;2.46;67.17;98845.63;10342577;28;20133;-59
2021/01/31 04:48:00;;;;;;;9.27;8.23;;;;;;;2.50;67.24;98843.63;10343449;28;20053;-60
2021/01/31 04:53:10;;;;;;;12.73;9.57;;;;;;;2.43;67.30;98848.47;10339167;28;20714;-61
2021/01/31 04:58:20;;;;;;;12.13;9.02;;;;;;;2.33;67.10;98854.44;10336210;28;20050;-62
2021/01/31 05:03:23;;;;;;;12.63;10.07;;;;;;;2.33;67.19;98844.78;10318308;28;20378;-60
2021/01/31 05:08:28;;;;;;;10.13;9.07;;;;;;;2.35;66.95;98855.19;10298661;28;20046;-59
2021/01/31 05:13:41;;;;;;;10.70;9.38;;;;;;;2.45;66.47;98854.44;10299965;28;20046;-59
2021/01/31 05:19:01;;;;;;;10.48;9.38;;;;;;;2.42;66.50;98857.28;10310157;28;20496;-60
2021/01/31 05:24:11;;;;;;;10.57;9.07;;;;;;;2.36;66.69;98870.84;10305461;28;20482;-60
2021/01/31 05:29:32;;;;;;;11.02;8.90;;;;;;;2.42;66.72;98865.16;10333890;28;20065;-60
2021/01/31 05:34:36;;;;;;;11.32;8.60;;;;;;;2.39;66.43;98861.91;10300567;28;20459;-59
2021/01/31 05:39:55;;;;;;;9.27;8.20;;;;;;;2.29;66.77;98867.78;10302876;28;20057;-59
2021/01/31 05:45:19;;;;;;;12.05;9.63;;;;;;;2.38;66.60;98866.31;10296561;28;20038;-59
2021/01/31 05:50:34;;;;;;;10.77;9.30;;;;;;;2.47;66.61;98884.06;10329779;28;20100;-59
2021/01/31 05:55:35;;;;;;;10.80;9.25;;;;;;;2.24;65.83;98879.56;10328546;28;20056;-58
2021/01/31 06:00:36;;;;;;;10.63;9.05;;;;;;;2.27;65.78;98888.06;10328285;28;20097;-59
2021/01/31 06:05:38;;;;;;;10.35;9.10;;;;;;;2.28;66.71;98888.88;10332512;28;20574;-59
2021/01/31 06:10:41;;;;;;;11.32;9.30;;;;;;;2.35;66.19;98889.31;10340234;28;20170;-59
2021/01/31 06:15:53;;;;;;;11.35;9.98;;;;;;;2.35;65.42;98892.78;10335780;28;20065;-60
2021/01/31 06:21:08;;;;;;;10.98;9.82;;;;;;;2.23;65.67;98891.00;10333224;28;20046;-59
2021/01/31 06:26:39;;;;;;;11.03;9.37;;;;;;;2.28;66.26;98904.66;10327654;28;20066;-60
2021/01/31 06:31:49;;;;;;;12.52;10.20;;;;;;;2.29;66.20;98911.59;10321541;28;20133;-59
2021/01/31 06:37:15;;;;;;;12.38;9.80;;;;;;;2.23;66.34;98923.34;10333732;28;20054;-65
2021/01/31 06:42:36;;;;;;;12.50;10.23;;;;;;;2.24;66.06;98918.94;10335931;28;20207;-59
2021/01/31 06:48:12;;;;;;;11.52;9.88;;;;;;;2.15;66.83;98924.78;10290442;28;20562;-59
2021/01/31 06:53:36;;;;;;;12.27;9.68;;;;;;;2.17;66.44;98922.94;10333285;28;20052;-59
2021/01/31 06:58:45;;;;;;;13.15;9.75;;;;;;;2.07;67.15;98923.53;10335248;28;20046;-59
2021/01/31 07:04:14;;;;;;;12.52;9.77;;;;;;;2.08;66.77;98914.69;10329266;28;20395;-59
2021/01/31 07:09:58;;;;;;;12.15;9.98;;;;;;;2.10;66.89;98918.09;10340845;28;20100;-60
2021/01/31 07:15:09;;;;;;;12.70;10.13;;;;;;;2.10;66.64;98931.22;10319146;28;20053;-59
2021/01/31 07:20:17;;;;;;;11.27;10.13;;;;;;;2.15;66.53;98945.78;10319910;28;20134;-59
2021/01/31 07:25:28;;;;;;;11.68;10.43;;;;;;;2.20;66.08;98948.97;10329034;28;20533;-59
2021/01/31 07:30:41;;;;;;;12.10;9.52;;;;;;;2.22;66.33;98944.44;10334972;28;20038;-59
2021/01/31 07:35:53;;;;;;;11.10;9.35;;;;;;;2.26;65.62;98953.81;10329359;28;20049;-59
2021/01/31 07:40:56;;;;;;;11.88;9.70;;;;;;;2.30;66.17;98950.03;10322392;28;20049;-59
2021/01/31 07:46:06;;;;;;;13.20;10.73;;;;;;;2.35;65.74;98942.69;10339126;28;20413;-63
2021/01/31 07:51:09;;;;;;;12.43;10.38;;;;;;;2.30;64.77;98950.88;10335458;28;20117;-59
2021/01/31 07:56:34;;;;;;;13.68;9.70;;;;;;;2.42;66.02;98956.25;10335080;28;20045;-58
2021/01/31 08:01:41;;;;;;;13.00;10.10;;;;;;;2.51;65.22;98957.41;10329040;28;20515;-58
2021/01/31 08:06:57;;;;;;;11.45;9.15;;;;;;;2.59;65.29;98949.84;10339247;28;20065;-59
2021/01/31 08:12:02;;;;;;;11.27;9.02;;;;;;;2.68;65.06;98959.72;10335337;28;20069;-59
2021/01/31 08:17:03;;;;;;;13.30;10.50;;;;;;;2.76;64.51;98967.94;10344851;28;20115;-59
2021/01/31 08:22:13;;;;;;;12.65;9.77;;;;;;;2.79;64.32;98962.47;10337555;28;20659;-61
2021/01/31 08:27:37;;;;;;;11.55;9.55;;;;;;;2.78;64.09;98970.47;10278151;23;20107;-66
2021/01/31 08:32:59;;;;;;;10.68;9.55;;;;;;;3.10;63.21;98965.56;10268408;28;20039;-66
2021/01/31 08:38:24;;;;;;;11.45;9.45;;;;;;;3.21;63.26;98962.19;10262204;28;20084;-66
2021/01/31 08:43:35;;;;;;;11.52;9.30;;;;;;;3.38;62.32;98958.38;10260968;28;20070;-66
2021/01/31 08:48:37;;;;;;;12.00;9.40;;;;;;;3.22;63.74;98960.41;10257311;28;20074;-66
2021/01/31 08:53:39;;;;;;;12.43;10.48;;;;;;;3.25;62.75;98970.72;10262748;28;20083;-66
2021/01/31 08:58:40;;;;;;;13.65;10.63;;;;;;;3.34;63.39;98967.44;10260959;28;20714;-65
2021/01/31 09:03:44;;;;;;;11.77;8.93;;;;;;;3.22;63.14;98947.28;10261184;28;20189;-65
2021/01/31 09:08:52;;;;;;;11.82;10.43;;;;;;;3.30;62.86;98940.53;10258186;28;20097;-67
2021/01/31 09:13:53;;;;;;;11.98;10.32;;;;;;;3.33;63.01;98940.31;10253052;28;20095;-65
2021/01/31 09:19:03;;;;;;;12.07;9.50;;;;;;;3.43;62.83;98945.72;10253837;28;20066;-67
2021/01/31 09:24:10;;;;;;;11.82;10.40;;;;;;;3.54;63.01;98963.38;10255555;28;20095;-68
2021/01/31 09:29:12;;;;;;;11.65;9.93;;;;;;;3.45;63.48;98957.00;10287251;28;20055;-65
2021/01/31 09:34:28;;;;;;;13.27;10.75;;;;;;;3.50;62.83;98965.38;10293847;28;20125;-67
2021/01/31 09:39:30;;;;;;;11.82;10.18;;;;;;;3.49;62.94;98966.31;10294029;28;20669;-66
2021/01/31 09:44:36;;;;;;;11.95;9.90;;;;;;;3.46;63.25;98984.13;10296058;28;20099;-67
2021/01/31 09:49:39;;;;;;;11.80;10.05;;;;;;;3.52;63.60;98966.09;10289010;28;20137;-66
2021/01/31 09:54:40;;;;;;;13.43;10.15;;;;;;;3.66;63.52;98966.91;10294720;28;20054;-66
2021/01/31 09:59:43;;;;;;;12.43;9.93;;;;;;;3.79;63.06;98959.81;10278824;28;20141;-66
2021/01/31 10:04:53;;;;;;;12.60;10.80;;;;;;;3.97;62.79;98964.69;10272128;28;20054;-69
2021/01/31 10:09:54;;;;;;;13.52;10.82;;;;;;;4.16;62.28;98953.59;10272515;28;20054;-66
2021/01/31 10:14:58;;;;;;;12.20;10.90;;;;;;;4.30;62.35;98963.13;10255563;28;20125;-68
2021/01/31 10:20:28;;;;;;;10.85;9.75;;;;;;;4.38;61.04;98960.75;10255495;28;20674;-66
2021/01/31 10:25:33;;;;;;;10.77;9.68;;;;;;;4.38;60.97;98958.09;10289874;28;20560;-68
2021/01/31 10:30:41;;;;;;;11.63;9.93;;;;;;;4.41;61.41;98952.59;10292075;28;20600;-66
2021/01/31 10:35:42;;;;;;;11.48;9.07;;;;;;;3.64;61.33;98934.59;10261213;28;20301;-67
2021/01/31 10:40:43;;;;;;;11.10;9.48;;;;;;;3.76;62.94;98944.22;10290558;28;20149;-68
2021/01/31 10:45:45;;;;;;;10.25;9.05;;;;;;;4.13;61.45;98956.47;10292810;28;20046;-69
2021/01/31 10:50:46;;;;;;;10.70;9.60;;;;;;;4.29;60.99;98954.38;10293179;28;20189;-68
2021/01/31 10:55:47;;;;;;;12.43;9.43;;;;;;;4.56;60.02;98950.59;10290237;28;20051;-68
2021/01/31 11:00:49;;;;;;;10.38;8.93;;;;;;;4.52;60.16;98950.00;10289431;28;20519;-68
2021/01/31 11:05:50;;;;;;;11.05;9.88;;;;;;;4.53;60.91;98946.41;10295005;28;20141;-68
2021/01/31 11:10:52;;;;;;;12.65;10.13;;;;;;;4.49;61.03;98950.25;10264469;28;20142;-68
2021/01/31 11:15:54;;;;;;;11.52;9.20;;;;;;;4.42;61.24;98935.84;10255023;28;20113;-66
2021/01/31 11:20:56;;;;;;;11.00;9.90;;;;;;;4.41;61.18;98937.66;10255799;28;20118;-67
2021/01/31 11:25:57;;;;;;;10.48;9.23;;;;;;;4.57;60.99;98936.47;10255544;28;20055;-67
2021/01/31 11:30:58;;;;;;;10.52;9.40;;;;;;;4.56;61.26;98930.38;10246056;28;20051;-68
2021/01/31 11:35:59;;;;;;;10.10;8.98;;;;;;;4.59;61.25;98930.13;10253710;28;20476;-67
2021/01/31 11:41:00;;;;;;;10.93;9.77;;;;;;;4.53;60.37;98916.56;10254992;28;20138;-67
2021/01/31 11:46:03;;;;;;;10.25;8.85;;;;;;;4.68;60.74;98935.66;10255174;28;20141;-67
2021/01/31 11:51:04;;;;;;;11.05;9.07;;;;;;;4.65;61.06;98935.88;10254798;28;20182;-67
2021/01/31 11:56:05;;;;;;;11.65;10.43;;;;;;;4.73;60.85;98923.78;10254511;28;20057;-66
2021/01/31 12:01:07;;;;;;;11.48;10.02;;;;;;;4.57;61.03;98900.41;10252758;28;20066;-68
2021/01/31 12:06:08;;;;;;;11.30;10.10;;;;;;;4.62;60.69;98886.03;10256846;28;20150;-68
2021/01/31 12:11:10;;;;;;;13.20;10.02;;;;;;;4.87;60.82;98895.50;10273538;28;20050;-68
2021/01/31 12:16:11;;;;;;;12.25;10.00;;;;;;;4.76;60.54;98877.91;10296150;28;20216;-67
2021/01/31 12:21:12;;;;;;;11.18;9.07;;;;;;;4.74;60.28;98864.84;10296043;28;20120;-67
2021/01/31 12:26:13;;;;;;;11.15;9.02;;;;;;;4.72;60.30;98860.66;10294847;28;20120;-66
2021/01/31 12:31:15;;;;;;;10.27;8.80;;;;;;;4.75;61.10;98860.41;10293310;28;20539;-67
2021/01/31 12:36:16;;;;;;;11.57;9.52;;;;;;;4.83;61.17;98863.25;10293582;28;20065;-67
2021/01/31 12:41:18;;;;;;;10.88;9.77;;;;;;;4.52;61.34;98834.06;10280708;28;20521;-68
2021/01/31 12:46:19;;;;;;;11.27;9.80;;;;;;;4.73;61.72;98852.63;10253207;28;21161;-67
2021/01/31 12:51:20;;;;;;;11.95;10.65;;;;;;;4.72;61.46;98839.56;10258109;28;20118;-67
2021/01/31 12:56:21;;;;;;;10.68;9.25;;;;;;;4.68;60.81;98830.19;10253370;28;20062;-66
2021/01/31 13:01:24;;;;;;;11.05;9.95;;;;;;;4.57;61.51;98815.25;10256375;28;20098;-67
2021/01/31 13:06:25;;;;;;;12.80;9.95;;;;;;;4.32;61.49;98811.03;10258038;28;20062;-66
2021/01/31 13:11:26;;;;;;;12.27;10.45;;;;;;;4.26;62.61;98801.81;10254883;28;20104;-68
2021/01/31 13:16:27;;;;;;;12.55;9.77;;;;;;;4.27;63.04;98813.22;10258159;28;20050;-68
2021/01/31 13:21:29;;;;;;;10.50;8.35;;;;;;;4.01;63.14;98808.97;10255776;28;20051;-67
2021/01/31 13:26:30;;;;;;;11.45;10.25;;;;;;;4.04;63.76;98786.84;10256751;28;20047;-66
2021/01/31 13:31:31;;;;;;;11.70;10.40;;;;;;;3.99;62.78;98763.47;10253415;28;20053;-66
2021/01/31 13:36:35;;;;;;;10.75;9.65;;;;;;;3.97;63.41;98783.84;10254786;28;20097;-66
2021/01/31 13:41:36;;;;;;;12.27;10.73;;;;;;;3.98;64.02;98779.38;10257210;28;20062;-66
2021/01/31 13:46:38;;;;;;;11.73;10.02;;;;;;;4.01;64.23;98771.28;10256820;28;20054;-66
2021/01/31 13:51:39;;;;;;;14.32;12.82;;;;;;;3.96;64.37;98762.88;10252708;28;20062;-67
2021/01/31 13:56:41;;;;;;;12.05;10.75;;;;;;;3.64;64.90;98742.50;10254686;28;20497;-66
2021/01/31 14:01:42;;;;;;;13.05;10.18;;;;;;;3.94;64.37;98760.38;10254636;28;20215;-66
2021/01/31 14:06:43;;;;;;;11.30;9.68;;;;;;;3.97;64.39;98754.03;10255496;28;20102;-67
2021/01/31 14:11:44;;;;;;;12.02;10.13;;;;;;;3.85;64.36;98751.38;10252894;28;20043;-65
2021/01/31 14:16:45;;;;;;;11.57;10.38;;;;;;;3.63;65.11;98743.44;10253847;28;20042;-66
2021/01/31 14:21:47;;;;;;;36.22;24.27;;;;;;;3.56;65.56;98735.19;10277896;28;20589;-66
2021/01/31 14:26:50;;;;;;;12.90;10.93;;;;;;;3.58;65.51;98738.53;10254552;28;20062;-67
2021/01/31 14:31:51;;;;;;;13.93;10.70;;;;;;;3.63;65.21;98717.13;10253352;28;20050;-66
2021/01/31 14:37:00;;;;;;;14.40;11.63;;;;;;;3.81;65.40;98728.88;10250350;28;20209;-66
2021/01/31 14:42:02;;;;;;;12.82;10.55;;;;;;;3.66;65.39;98709.00;10252456;28;20109;-66
2021/01/31 14:47:03;;;;;;;13.73;11.27;;;;;;;3.83;65.65;98711.19;10270396;28;20416;-67
2021/01/31 14:52:05;;;;;;;13.38;10.57;;;;;;;3.60;64.84;98714.75;10289218;28;20109;-65
2021/01/31 14:57:06;;;;;;;11.55;10.35;;;;;;;3.69;65.17;98719.28;10289829;28;20185;-67
2021/01/31 15:02:07;;;;;;;13.73;11.23;;;;;;;3.74;65.42;98727.69;10290154;28;20101;-68
2021/01/31 15:07:09;;;;;;;12.65;11.35;;;;;;;3.80;65.67;98719.31;10290434;28;20053;-68
2021/01/31 15:12:11;;;;;;;12.93;10.98;;;;;;;3.81;65.56;98718.34;10293380;28;20050;-66
2021/01/31 15:17:13;;;;;;;15.90;13.15;;;;;;;3.70;65.50;98690.22;10259420;28;20393;-67
2021/01/31 15:22:14;;;;;;;18.05;14.48;;;;;;;3.70;66.60;98710.44;10249874;28;20585;-67
2021/01/31 15:27:15;;;;;;;114.10;76.43;;;;;;;3.64;65.60;98689.88;10251118;28;20109;-67
2021/01/31 15:32:17;;;;;;;19.38;15.23;;;;;;;3.80;65.91;98706.16;10249034;28;20691;-66
2021/01/31 15:37:18;;;;;;;21.73;17.17;;;;;;;3.75;66.17;98703.03;10252692;28;20145;-66
2021/01/31 15:42:19;;;;;;;15.30;13.70;;;;;;;3.78;66.28;98692.25;10249957;28;20082;-67
2021/01/31 15:47:21;;;;;;;15.27;12.40;;;;;;;3.87;66.25;98680.19;10250341;28;20125;-67
2021/01/31 15:52:22;;;;;;;14.63;12.30;;;;;;;3.72;65.96;98671.69;10250737;28;20152;-67
2021/01/31 15:57:23;;;;;;;13.07;11.70;;;;;;;3.63;66.41;98661.88;10285093;28;20078;-67
2021/01/31 16:02:25;;;;;;;15.65;12.80;;;;;;;3.58;67.41;98648.25;10290759;28;20787;-67
2021/01/31 16:07:26;;;;;;;15.93;13.75;;;;;;;3.60;67.06;98641.06;10289697;28;20062;-67
2021/01/31 16:12:27;;;;;;;15.25;12.90;;;;;;;3.61;67.18;98626.97;10269771;28;20142;-68
2021/01/31 16:17:28;;;;;;;15.02;13.38;;;;;;;3.54;67.24;98635.34;10254508;28;20133;-67
2021/01/31 16:22:29;;;;;;;14.20;11.88;;;;;;;3.61;67.00;98625.16;10257601;28;20524;-67
2021/01/31 16:27:31;;;;;;;12.30;10.55;;;;;;;3.60;67.25;98622.66;10256119;28;20509;-67
2021/01/31 16:32:32;;;;;;;14.00;12.35;;;;;;;3.71;67.03;98636.63;10253078;28;20106;-67
2021/01/31 16:37:33;;;;;;;13.48;10.90;;;;;;;3.74;67.05;98627.69;10247524;28;20456;-68
2021/01/31 16:42:35;;;;;;;13.25;10.45;;;;;;;3.74;66.69;98613.66;10253273;28;20079;-67
2021/01/31 16:47:36;;;;;;;13.48;11.30;;;;;;;3.65;67.49;98617.88;10257699;28;20098;-68
2021/01/31 16:52:38;;;;;;;13.98;11.20;;;;;;;3.85;67.02;98621.56;10262162;28;20642;-68
2021/01/31 16:57:41;;;;;;;13.88;12.25;;;;;;;3.89;66.96;98615.94;10261368;28;20150;-68
2021/01/31 17:02:46;;;;;;;12.48;10.20;;;;;;;3.87;66.93;98604.69;10254196;28;20586;-68
2021/01/31 17:07:48;;;;;;;14.50;11.57;;;;;;;3.81;67.33;98613.06;10256419;28;20145;-69
2021/01/31 17:12:50;;;;;;;14.18;11.27;;;;;;;3.85;67.35;98603.97;10254093;28;20069;-69
2021/01/31 17:17:51;;;;;;;15.15;12.68;;;;;;;3.83;67.25;98595.38;10254365;28;20149;-66
2021/01/31 17:22:52;;;;;;;12.82;11.18;;;;;;;3.84;67.18;98580.41;10253992;28;20192;-67
2021/01/31 17:27:55;;;;;;;15.18;13.52;;;;;;;3.75;67.52;98578.50;10253420;28;20128;-67
2021/01/31 17:32:57;;;;;;;14.90;11.77;;;;;;;3.62;67.64;98555.78;10264062;28;20113;-67
2021/01/31 17:37:58;;;;;;;15.55;12.57;;;;;;;3.63;67.71;98554.81;10264378;28;20551;-68
2021/01/31 17:43:00;;;;;;;14.20;11.90;;;;;;;3.70;67.94;98563.91;10253758;28;20054;-68
2021/01/31 17:48:01;;;;;;;14.40;11.25;;;;;;;3.73;67.57;98549.66;10249978;28;20050;-68
2021/01/31 17:53:03;;;;;;;15.00;13.18;;;;;;;3.74;68.27;98543.47;10254401;28;20454;-68
2021/01/31 17:58:04;;;;;;;13.60;11.18;;;;;;;3.84;67.63;98540.91;10254099;28;20109;-67
2021/01/31 18:03:06;;;;;;;15.70;12.75;;;;;;;3.85;68.00;98535.53;10258121;28;20067;-68
2021/01/31 18:08:07;;;;;;;15.90;12.48;;;;;;;3.87;67.80;98525.72;10241478;23;20047;-70
2021/01/31 18:13:09;;;;;;;13.57;12.15;;;;;;;3.85;68.03;98525.00;10267464;28;20134;-68
2021/01/31 18:18:10;;;;;;;14.73;12.15;;;;;;;3.97;68.20;98522.34;10298236;28;20054;-69
2021/01/31 18:23:12;;;;;;;15.38;13.00;;;;;;;3.92;68.37;98508.72;10300945;28;20164;-68
2021/01/31 18:28:15;;;;;;;16.45;13.43;;;;;;;3.88;68.81;98513.41;10297414;28;20052;-69
2021/01/31 18:33:16;;;;;;;27.15;21.88;;;;;;;3.95;68.08;98500.56;10296550;28;20535;-69
2021/01/31 18:38:18;;;;;;;28.58;25.40;;;;;;;3.95;68.35;98487.41;10296173;28;20050;-70
2021/01/31 18:43:19;;;;;;;19.02;17.02;;;;;;;3.93;68.75;98478.78;10299395;28;20050;-69
2021/01/31 18:48:25;;;;;;;17.77;15.32;;;;;;;3.92;68.46;98474.47;10296124;28;20101;-70
2021/01/31 18:53:26;;;;;;;16.95;13.45;;;;;;;3.98;68.72;98476.63;10302475;28;20085;-69
2021/01/31 18:58:27;;;;;;;16.05;13.57;;;;;;;3.96;68.71;98473.28;10289118;28;20518;-69
2021/01/31 19:03:29;;;;;;;15.20;13.40;;;;;;;3.97;69.11;98470.53;10298298;28;20054;-69
2021/01/31 19:08:31;;;;;;;16.05;14.13;;;;;;;3.95;69.56;98461.06;10298989;28;20136;-70
2021/01/31 19:13:32;;;;;;;18.15;14.57;;;;;;;3.92;69.93;98461.31;10300884;28;20128;-70
2021/01/31 19:18:33;;;;;;;32.45;26.65;;;;;;;3.92;69.62;98445.53;10297263;28;21215;-70
2021/01/31 19:23:34;;;;;;;20.23;17.52;;;;;;;3.96;70.07;98436.44;10297438;28;20050;-69
2021/01/31 19:28:35;;;;;;;16.95;14.43;;;;;;;3.96;70.50;98437.25;10307960;28;20073;-71
2021/01/31 19:33:37;;;;;;;17.10;15.30;;;;;;;3.87;71.20;98420.44;10331559;28;20057;-70
2021/01/31 19:38:38;;;;;;;17.05;14.20;;;;;;;3.74;72.29;98411.88;10323221;28;20042;-70
2021/01/31 19:43:39;;;;;;;16.27;13.77;;;;;;;3.77;72.90;98410.75;10317872;28;20105;-70
2021/01/31 19:48:44;;;;;;;14.45;12.45;;;;;;;3.75;72.67;98408.25;10309438;28;20054;-70
2021/01/31 19:53:45;;;;;;;16.90;14.27;;;;;;;3.70;73.02;98395.47;10299298;28;20050;-69
2021/01/31 19:58:46;;;;;;;16.40;13.00;;;;;;;3.74;73.60;98379.44;10296915;28;20069;-70
2021/01/31 20:03:47;;;;;;;14.88;12.25;;;;;;;3.76;73.65;98382.78;10298329;28;20061;-70
2021/01/31 20:08:49;;;;;;;15.30;12.95;;;;;;;3.71;73.93;98375.28;10297374;28;20121;-70
2021/01/31 20:13:52;;;;;;;16.63;13.77;;;;;;;3.65;74.51;98360.81;10297799;28;20054;-71
2021/01/31 20:18:54;;;;;;;17.70;14.13;;;;;;;3.61;75.12;98359.41;10309009;28;20077;-71
2021/01/31 20:23:55;;;;;;;17.63;14.00;;;;;;;3.64;75.48;98348.63;10327803;28;20054;-71
2021/01/31 20:28:57;;;;;;;16.05;13.07;;;;;;;3.70;75.31;98342.03;10320139;28;20065;-71
2021/01/31 20:33:59;;;;;;;16.52;14.02;;;;;;;3.64;75.51;98334.63;10306172;28;20109;-70
2021/01/31 20:39:00;;;;;;;18.48;14.32;;;;;;;3.63;76.06;98330.31;10304926;28;20070;-69
2021/01/31 20:44:02;;;;;;;15.35;12.77;;;;;;;3.57;76.43;98315.06;10297041;28;20622;-71
2021/01/31 20:49:04;;;;;;;17.42;13.60;;;;;;;3.61;76.53;98319.09;10297722;28;20406;-70
2021/01/31 20:54:06;;;;;;;15.90;12.60;;;;;;;3.64;76.23;98317.03;10297495;28;20046;-71
2021/01/31 20:59:07;;;;;;;14.65;12.52;;;;;;;3.58;76.31;98296.50;10295103;28;20054;-71
2021/01/31 21:04:09;;;;;;;15.27;13.13;;;;;;;3.59;76.67;98285.03;10302042;28;20061;-69
2021/01/31 21:09:10;;;;;;;14.00;11.95;;;;;;;3.62;76.37;98283.91;10304254;28;20054;-68
2021/01/31 21:14:11;;;;;;;15.15;12.20;;;;;;;3.59;76.93;98274.50;10262992;28;20125;-70
2021/01/31 21:19:13;;;;;;;14.25;12.70;;;;;;;3.56;77.03;98266.88;10264905;28;20082;-70
2021/01/31 21:24:14;;;;;;;15.68;11.13;;;;;;;3.41;77.56;98268.97;10265297;28;20113;-69
2021/01/31 21:29:15;;;;;;;15.57;13.20;;;;;;;3.35;77.85;98254.53;10261004;28;20134;-70
2021/01/31 21:34:16;;;;;;;14.10;11.55;;;;;;;3.25;78.48;98255.41;10274496;28;20058;-67
2021/01/31 21:39:18;;;;;;;14.70;12.80;;;;;;;3.30;78.08;98250.59;10276728;28;20055;-70
2021/01/31 21:44:19;;;;;;;14.68;12.20;;;;;;;3.32;78.22;98256.59;10262337;28;20051;-69
2021/01/31 21:49:20;;;;;;;14.82;12.27;;;;;;;3.42;78.28;98249.56;10263050;28;20050;-69
2021/01/31 21:54:21;;;;;;;16.02;13.75;;;;;;;3.46;78.34;98234.41;10258049;28;20043;-69
2021/01/31 21:59:24;;;;;;;16.90;13.80;;;;;;;3.51;78.28;98222.53;10259291;28;20074;-69
2021/01/31 22:04:25;;;;;;;15.35;12.65;;;;;;;3.75;77.07;98216.13;10261829;28;20086;-69
2021/01/31 22:09:26;;;;;;;15.50;12.95;;;;;;;3.67;77.38;98215.97;10260898;28;20046;-69
2021/01/31 22:14:27;;;;;;;15.98;13.68;;;;;;;3.64;77.71;98208.34;10260603;28;20117;-69
2021/01/31 22:19:29;;;;;;;17.13;13.45;;;;;;;3.73;77.69;98215.44;10255646;28;20509;-69
2021/01/31 22:24:30;;;;;;;16.40;13.65;;;;;;;3.73;77.32;98204.94;10257354;28;20517;-69
2021/01/31 22:29:31;;;;;;;16.08;12.95;;;;;;;3.75;77.37;98195.09;10258992;28;20124;-70
2021/01/31 22:34:32;;;;;;;15.57;13.35;;;;;;;3.70;77.27;98189.41;10256865;28;20592;-70
2021/01/31 22:39:33;;;;;;;15.38;12.98;;;;;;;3.72;77.45;98182.19;10258823;28;20082;-69
2021/01/31 22:44:35;;;;;;;14.90;12.65;;;;;;;3.71;77.35;98178.75;10270864;28;20077;-70
2021/01/31 22:49:36;;;;;;;15.18;13.13;;;;;;;3.73;77.31;98178.59;10272658;28;20093;-70
2021/01/31 22:54:37;;;;;;;14.68;12.27;;;;;;;3.74;77.14;98180.28;10271582;28;20477;-70
2021/01/31 22:59:38;;;;;;;14.50;12.88;;;;;;;3.75;77.04;98168.78;10273755;28;20517;-69
2021/01/31 23:04:39;;;;;;;15.55;13.32;;;;;;;3.72;77.38;98167.25;10271835;28;20070;-70
2021/01/31 23:09:42;;;;;;;14.20;12.45;;;;;;;3.76;76.91;98167.00;10274968;28;20051;-69
2021/01/31 23:14:43;;;;;;;15.88;14.15;;;;;;;3.81;76.64;98173.50;10315698;28;20046;-69
2021/01/31 23:19:44;;;;;;;17.42;14.23;;;;;;;3.81;77.16;98154.25;10283246;28;20058;-70
2021/01/31 23:24:45;;;;;;;14.50;12.60;;;;;;;3.80;76.91;98132.38;10282723;28;20054;-72
2021/01/31 23:29:46;;;;;;;14.05;12.55;;;;;;;3.84;76.96;98133.78;10278678;28;20061;-70